Hamad Nader

Recruteur - Al Wahda
20 Févr 2028
Dimanche
Processus

Personnalité

Adaptabilité (5) Ambition (6) Controverse (4) Loyauté (3) Pression (16) Professionnalisme (2) Sportivité (3) Tempérament (4)

Profil

Style d'entraînement Démocratique
Diplôme National B
Détermination 9
Gestion des joueurs 10
Motivation 5
Discipline 7
Satisfaction professionnelle
100%
Fatigue
0%
Rôle Recruteur
Salaire 91.6K p/s
Contrat 14.03.2029

Performance

Comportement Bon
Efficacité de l'entraînement
44%
Développement des joueurs
60%
Prévention des blessures
50%
Mise en place tactique
65%

Événements récents

A évalué un joueur maintenant
A évalué un joueur maintenant
A participé à une réunion de recrutement maintenant
A évalué un joueur maintenant
A évalué un joueur maintenant
A évalué un joueur maintenant
A observé un match maintenant
A évalué un joueur 7j

Suivi en cours

213
Joueur Club Statut Capacité Confiance Observé Dernière observation Dernier vote
Moustapha Sémbène Hajer Actif 107 / 111 40% 8 19.02.2028 -
Drake Callender Minnesota United FC Actif 131 / 121 40% 2 19.02.2028 -
Leopold Wahlstedt Rosenborg Actif 129 / 120 40% 2 19.02.2028 -
Marek Rodák Malmo FF Actif 134 / 141 40% 3 19.02.2028 -
Konta Ismaily Actif 104 / 99 40% 1 19.02.2028 -
Dayne St. Clair Inter Miami CF Actif 121 / 137 40% 2 18.02.2028 -
George Wickens Lincoln City Actif 130 / 125 40% 4 18.02.2028 -
Jan Koutný Sigma Olomouc Actif 116 / 128 40% 1 18.02.2028 -
Max O'Leary West Bromwich Albion Actif 127 / 137 40% 4 17.02.2028 -
Stojan Leković Sharjah Actif 119 / 124 40% 2 16.02.2028 -
Tomáš Frühwald Bohemians 1905 Actif 129 / 122 40% 1 16.02.2028 -
Elias Hadaya Sandefjord Actif 112 / 122 40% 1 16.02.2028 -
Majid Rezaeian Rah Ahan Actif 113 / 110 40% 3 14.02.2028 -
Abdul Aziz Al-Fawaz Al-Wehda Actif 97 / 103 40% 3 14.02.2028 -
Matouš Trmal Teplice Actif 135 / 129 40% 1 14.02.2028 -
Saeid Taremi Gostaresh Foulad Actif 84 / 95 40% 1 14.02.2028 -
Alfie Whiteman Newport County Actif 106 / 104 40% 2 12.02.2028 -
Patrick Schulte Columbus Crew Actif 119 / 123 40% 4 11.02.2028 -
Jakub Markovič Slavia Prague Actif 131 / 141 40% 1 11.02.2028 -
Mikkel Hope Haugesund Actif 104 / 105 40% 6 10.02.2028 -
Zach Hemming Chesterfield Actif 109 / 113 40% 2 10.02.2028 -
Jordan Amissah Burton Albion Actif 105 / 118 40% 1 10.02.2028 -
Lucas Camejo River Plate Actif 91 / 87 40% 1 10.02.2028 -
Jamie Wähling Hibernians Actif 91 / 89 40% 1 10.02.2028 -
Novak Mićović LA Galaxy Actif 114 / 125 40% 5 08.02.2028 -
Lévi Ntumba Slavia Sofia Actif 118 / 114 40% 1 08.02.2028 -
Matt Freese New York City Actif 146 / 136 40% 1 08.02.2028 -
Evgeny Latyshonok Nizhniy Novgorod Actif 125 / 121 40% 3 07.02.2028 -
Joel McGregor Swindon Town Actif 94 / 111 40% 2 07.02.2028 -
Kyrylo Dihtiar Zorya Actif 118 / 119 40% 2 07.02.2028 -
Joe Whitworth Stockport County Actif 118 / 116 40% 1 07.02.2028 -
Daniel Banjaqui Benfica Actif 120 / 127 40% 1 05.02.2028 -
Esquerdinha Shrewsbury Town Actif 128 / 126 40% 1 05.02.2028 -
Harbor Miller LA Galaxy Actif 105 / 106 40% 1 03.02.2028 -
Abubacarr Sedi Kinteh Al-Hilal Actif 138 / 129 40% 2 02.02.2028 -
Matías Canedo Rampla Juniors Actif 86 / 90 40% 3 02.02.2028 -
Maxim Borisko CSKA Moscow Actif 137 / 137 40% 3 02.02.2028 -
Harry Tyrer Cardiff City Actif 112 / 122 40% 2 02.02.2028 -
Tarek Bousseder ES Setif Actif 103 / 111 40% 1 02.02.2028 -
Nicolás Sumavil Platense Actif 118 / 122 40% 2 01.02.2028 -
Bruno Antúnez Boston River Actif 114 / 117 40% 2 01.02.2028 -
Enzo Vázquez Central Norte Actif 109 / 113 40% 3 29.01.2028 -
Nahuel Pezzini Arsenal Actif 116 / 106 40% 2 27.01.2028 -
Luka Gavran Toronto FC Actif 127 / 107 40% 2 25.01.2028 -
Roberto Ramírez Godoy Cruz Actif 121 / 115 40% 2 25.01.2028 -
Nahuel Galardi Maipú Actif 123 / 116 40% 1 25.01.2028 -
Ismail Al Suwaidi Al Fujairah Actif 126 / 128 40% 8 24.01.2028 -
Jerónimo Pourtau Talleres Actif 130 / 119 40% 2 24.01.2028 -
Iván Arboleda Sarmiento Actif 119 / 121 40% 2 24.01.2028 -
Mohamed Sobhi Al Gaish Actif 123 / 105 40% 2 24.01.2028 -
Emmanuel Dzigbah Cukaricki Actif 102 / 100 40% 1 24.01.2028 -
Roman Celentano FC Cincinnati Actif 120 / 139 40% 1 22.01.2028 -
Sol Brynn Krasnodar Actif 139 / 124 40% 2 20.01.2028 -
Body Samir ENPPI Actif 110 / 110 40% 1 20.01.2028 -
Luis Ingolotti Atlético Tucumán Actif 131 / 132 40% 3 19.01.2028 -
Nahuel Suárez La Luz Actif 108 / 107 40% 1 19.01.2028 -
Stevie Bausor Northampton Town Actif 111 / 125 40% 1 17.01.2028 -
Pedro González Cerro Largo Actif 112 / 115 40% 1 17.01.2028 -
Facundo Cambeses Racing Club Actif 137 / 136 40% 2 16.01.2028 -
Oscar Hedvall Valerenga Actif 125 / 121 40% 1 16.01.2028 -
Víctor Cabezas Union Magdalena Actif 115 / 122 40% 2 14.01.2028 -
Ricky Atletico Venezuela Actif 102 / 95 40% 5 13.01.2028 -
Farhah Al-Shamrani Al-Ra'ed Actif 99 / 97 40% 5 13.01.2028 -
Rivaldo Grobler Free State Stars Actif 92 / 96 40% 2 13.01.2028 -
CJ dos Santos San Diego Football Club Actif 114 / 128 40% 1 13.01.2028 -
Josh Nichols Tranmere Rovers Actif 121 / 136 40% 6 11.01.2028 -
Nazareno Roselli Defensa y Justicia Actif 108 / 124 40% 3 11.01.2028 -
Saman Rezaeian Gostaresh Foulad Actif 109 / 118 40% 2 11.01.2028 -
Pontus Dahlberg Lillestrom Actif 111 / 132 40% 3 09.01.2028 -
Lucas Bruera Carabobo Actif 123 / 120 40% 1 09.01.2028 -
Fredrick Asare Bloemfontein Celtic Actif 105 / 116 40% 1 08.01.2028 -
Avery Appiah Ajax Actif 125 / 131 40% 4 05.01.2028 -
Agustín Lastra Estudiantes Actif 111 / 118 40% 1 05.01.2028 -
Angus Gunn San Jose Earthquakes Actif 134 / 123 40% 1 05.01.2028 -
Igor Felisberto Sport Recife Actif 100 / 109 40% 1 05.01.2028 -
Will Dennis Milton Keynes Dons Actif 115 / 121 40% 1 03.01.2028 -
Renzo Bacchia Racing Refusé 128 / 114 40% 1 31.12.2027 Plus d'infos
Tygo Land PSV Actif 122 / 138 40% 1 09.12.2027 -
Cristian Guzmán Universitario Popayan Actif 85 / 90 40% 1 09.12.2027 -
Jorthy Mokio ADO Den Haag Actif 140 / 140 40% 2 07.12.2027 -
Tiago Freitas Benfica Actif 125 / 113 40% 8 05.12.2027 -
Joel Ezra Enyimba Actif 89 / 112 40% 4 04.12.2027 -
Momodou Jatta Al Ahli Actif 107 / 110 40% 4 02.12.2027 -
Matteo Pérez Vinlöf Dinamo Zagreb Actif 128 / 130 40% 6 01.12.2027 -
Jair Collahuazo Kudrivka Actif 114 / 99 40% 2 01.12.2027 -
Khalis Merah Toulouse FC Actif 126 / 138 40% 1 30.11.2027 -
Mohamed Bolivar Barranquilla Actif 87 / 88 40% 4 29.11.2027 -
Bahia Criciuma Actif 107 / 124 40% 7 29.11.2027 -
João Teixeira Porto Actif 116 / 126 40% 1 28.11.2027 -
Samuel Posada Leones Actif 91 / 83 40% 5 25.11.2027 -
Emiliano Bértoli Patronato Actif 98 / 93 40% 3 25.11.2027 -
Daniel Gomez Valledupar Actif 93 / 93 40% 7 24.11.2027 -
Agustín Obregón River Plate Actif 116 / 127 40% 3 19.11.2027 -
Tiago Parente Benfica Actif 98 / 111 40% 2 19.11.2027 -
Eduardo Felicíssimo Sporting CP Actif 114 / 122 40% 5 16.11.2027 -
Tiago Gordillo San Miguel Actif 90 / 98 40% 5 16.11.2027 -
Olaniyi Saheed Kwara United Actif 85 / 109 40% 8 15.11.2027 -
Ángel Aguayo Sol de America Actif 88 / 99 40% 9 14.11.2027 -
Tobías Andrada Virtus Entella Actif 111 / 124 40% 1 14.11.2027 -
Stanislav Topinka Sochi Actif 86 / 82 40% 1 14.11.2027 -
Keagan Phiri Platinum Stars Actif 105 / 100 40% 2 12.11.2027 -
Godwin Oham Warri Wolves Actif 96 / 97 40% 11 12.11.2027 -
Ernie Weaver AFC Wimbledon Actif 118 / 111 40% 1 10.11.2027 -
Martim Cunha Porto Actif 110 / 116 40% 10 09.11.2027 -
Noa Mikić Imotski Actif 118 / 112 40% 1 09.11.2027 -
Noel Sernelius IFK Norrkoping Actif 97 / 105 40% 1 09.11.2027 -
Joe Johnson Barnet Actif 105 / 106 40% 1 08.11.2027 -
Gady Beyuku Blackburn Rovers Actif 125 / 115 40% 1 04.11.2027 -
Kaick Minnesota United FC Actif 110 / 121 40% 3 03.11.2027 -
Celías Ingenthron Vélez Actif 114 / 119 40% 9 30.10.2027 -
Alejandro Almaraz Nueva Chicago Actif 111 / 123 40% 5 28.10.2027 -
Juan Giménez Celta Actif 123 / 135 40% 7 23.10.2027 -
Esteban de Lima Tacuarembo Actif 92 / 90 40% 3 21.10.2027 -
Julián Bazán Philadelphia Union Actif 104 / 128 40% 4 14.10.2027 -
Brandon Powell Wigan Athletic Actif 113 / 114 40% 2 11.10.2027 -
Ibrahim El Wensh Masr El Makasa Actif 91 / 113 40% 1 11.10.2027 -
Edvard Pettersen Sandefjord Actif 98 / 117 40% 2 06.10.2027 -
Alan Echegaray Al Dhafra Actif 91 / 94 42% 1 / 1m 06.10.2027 -
Agustín Medina Valencia Actif 130 / 118 40% 3 04.10.2027 -
Nika Kvaratskhelia Tskhinvali Actif 92 / 102 40% 2 04.10.2027 -
Nikolay Sotnikov Arsenal Dzerzhinsk Actif 78 / 81 40% 3 04.10.2027 -
Frankie Westfield Philadelphia Union Actif 107 / 104 40% 2 01.10.2027 -
Yiandro Raap Ilves Actif 87 / 103 40% 4 24.09.2027 -
Ulises Giménez River Plate Actif 106 / 120 40% 1 22.09.2027 -
Estanislao López Colón Actif 86 / 104 40% 1 22.09.2027 -
Daniel Kelly Oxford United Actif 104 / 121 40% 1 17.09.2027 -
Jayden Joseph Bradford City Actif 95 / 95 40% 1 16.09.2027 -
Otto Tiitinen Ilves Actif 101 / 105 40% 2 14.09.2027 -
Felipe Obradovich Ferro Carril Oeste Actif 99 / 124 40% 1 10.09.2027 -
Pablo Aguiar Independiente Actif 106 / 118 40% 1 08.09.2027 -
Mbekezeli Mbokazi Chicago Fire Actif 138 / 134 40% 1 01.09.2027 -
Trey Nyoni Rotherham United Actif 122 / 136 40% 2 21.08.2027 -
Diego Vargas San Marcos de Arica Actif 96 / 100 40% 2 19.08.2027 -
Adam Bakoune Ospitaletto Actif 97 / 115 40% 2 19.08.2027 -
Jens Hjertø-Dahl Hull City Actif 120 / 137 40% 1 19.08.2027 -
Mehdi Al-Aboud Al-Fateh Actif 89 / 108 40% 1 18.08.2027 -
Benjamin Arthur Brentford Actif 123 / 140 40% 1 17.08.2027 -
Santino Pasini Nea Salamis Actif 97 / 113 40% 1 13.08.2027 -
Eddy Kouadio Crotone Actif 112 / 122 40% 4 10.08.2027 -
Jofrank Istifanus Nasarawa United Actif 78 / 79 40% 1 10.08.2027 -
Jofre Torrents Ajax Actif 136 / 146 40% 5 09.08.2027 -
Vasco Santos Oliveirense Actif 99 / 94 40% 1 09.08.2027 -
Maeson King Queens Park Rangers Actif 111 / 116 40% 1 02.08.2027 -
Valentin Atangana Al-Ahli Actif 135 / 134 40% 3 01.08.2027 -
Ibrahim Sabiu Bendel Insurance Actif 74 / 82 40% 1 01.08.2027 -
Saeid Beiranvand Gostaresh Foulad Actif 81 / 96 40% 1 31.07.2027 -
Tobias Slotsager Casertana Actif 114 / 112 40% 3 29.07.2027 -
Bradley de Jesus Tondela Actif 100 / 92 40% 1 29.07.2027 -
Andrea Bertoncini Carpi Actif 98 / 107 40% 1 27.07.2027 -
Freddy Murillo Valencia Actif 122 / 112 40% 2 26.07.2027 -
Latrell Aken Groningen Actif 111 / 114 40% 4 04.07.2027 -
Leandro Martins Benfica Actif 89 / 106 40% 4 04.07.2027 -
Matvey Kislyak CSKA Moscow Actif 141 / 134 40% 4 01.07.2027 -
Darryl Bakola Padova Actif 119 / 115 40% 2 01.07.2027 -
Keagan Tau Ajax Cape Town Actif 107 / 105 40% 7 28.06.2027 -
Finley McAllister Grimsby Town Actif 101 / 100 40% 4 22.06.2027 -
Egil Selvik Watford Actif 139 / 124 40% 1 02.06.2027 -
Ryoya Morishita Blackburn Rovers Actif 120 / 128 40% 1 31.05.2027 -
Musa Barrow Al-Khaleej Actif 144 / 141 40% 1 31.05.2027 -
Sascha Britschgi Padova Actif 121 / 133 40% 2 30.05.2027 -
Ezra Mayers West Ham United Actif 126 / 127 40% 4 24.05.2027 -
Zaïd BafdilI Sporting CP Actif 79 / 97 40% 5 23.05.2027 -
Samuele di Benedetto Bari Actif 103 / 125 40% 2 19.05.2027 -
Davide Bartesaghi AC Milan Actif 120 / 135 40% 3 19.05.2027 -
Karim Coulibaly RC Strasbourg Actif 117 / 132 40% 3 17.05.2027 -
Fuzy Taylor Medeama Actif 71 / 86 40% 3 15.05.2027 -
Abdoulaye Kanté Al-Ettifaq Actif 107 / 117 40% 2 12.05.2027 -
Christ Inao Oulaï Fiorentina Actif 137 / 146 40% 2 17.04.2027 -
David Ozoh Derby County Actif 121 / 121 40% 3 13.04.2027 -
Percy Jali Free State Stars Actif 98 / 88 40% 1 12.04.2027 -
João Capucho Benfica Actif 89 / 100 40% 1 12.04.2027 -
Hlompho Lorch Ajax Cape Town Actif 86 / 113 40% 2 05.04.2027 -
Ronwen Phiri Platinum Stars Actif 104 / 93 40% 2 04.04.2027 -
Dylan Lawlor Cardiff City Actif 111 / 127 40% 3 31.03.2027 -
Cemran Dansin Orlando Pirates Actif 99 / 127 40% 1 18.03.2027 -
Luke Baartman ES Mostaganem Actif 113 / 105 40% 1 27.12.2026 -
Miloš Jovičić Zabbar St. Patrick Actif 90 / 87 40% 3 25.12.2026 -
Faisal Al-Abdulwahed Al-Fateh Actif 91 / 85 40% 3 22.12.2026 -
Hazeem Bakre Crawley Town Actif 84 / 96 40% 1 21.12.2026 -
Lwanda Mbanjwa Maritzburg United Actif 100 / 83 40% 1 19.12.2026 -
Víctor Guzmán Sporting CP Actif 98 / 107 40% 1 16.12.2026 -
Ouadjih Khelfaoui CS Constantine Actif 86 / 81 40% 2 08.12.2026 -
Lévy Néne FC Nordsjaelland Actif 124 / 106 40% 2 30.11.2026 -
Nikolay Zlatev Cherno More Actif 98 / 107 40% 3 25.11.2026 -
Dramane Kamagaté USM Alger Actif 102 / 94 40% 1 25.11.2026 -
Darlvin Yeboah Bechem United Actif 86 / 87 40% 1 16.11.2026 -
Agustín Fernández NK Zavrc Actif 97 / 109 40% 1 09.11.2026 -
Tomás Romero Unión de Santa Fe Actif 94 / 105 40% 2 08.11.2026 -
Krešimir Radoš HNK Gorica Actif 106 / 112 40% 2 08.11.2026 -
Charles Bassey Smouha Actif 82 / 84 40% 3 06.11.2026 -
Francisco Silva Temperley Actif 84 / 84 40% 1 16.10.2026 -
Jonás Luna Santa Clara Actif 104 / 121 40% 2 14.10.2026 -
Dmitry Usov Textilschik Actif 82 / 76 40% 1 14.10.2026 -
Ricardo Solbes Unión de Santa Fe Actif 95 / 109 40% 1 10.10.2026 -
Alan Coria Defensa y Justicia Actif 91 / 104 40% 2 07.10.2026 -
Alejandro Garay Independiente Actif 87 / 86 40% 3 03.10.2026 -
Alexis Devesa Aldosivi Actif 89 / 99 40% 1 03.10.2026 -
Thiago Perugini San Lorenzo Actif 89 / 104 40% 1 02.10.2026 -
Bautista Pereira Danubio Actif 95 / 104 40% 2 01.10.2026 -
Leonel Flores Boca Juniors Actif 103 / 112 40% 2 30.09.2026 -
Hassan Beja AFC Leopards Actif 94 / 73 40% 1 30.09.2026 -
Manuel Rodríguez Millonarios Actif 87 / 95 40% 1 28.09.2026 -
Shane Nti Brighton Actif 92 / 107 40% 1 27.09.2026 -
Kaio Eduardo Thun Actif 105 / 123 40% 1 26.09.2026 -
Ignacio Giacinti Patronato Actif 84 / 89 40% 2 22.09.2026 -
Michael Adu-Poku Watford Actif 92 / 103 40% 1 16.09.2026 -
Maximo Ingravidi Colón Actif 104 / 97 40% 1 15.09.2026 -
Aaron Centurión Vélez Actif 94 / 100 40% 1 15.09.2026 -
Jonathan Ledesma Platense Actif 92 / 100 40% 1 14.09.2026 -
Juan Villordo River Plate Actif 83 / 98 40% 1 09.09.2026 -
Anthony Smits AZ Actif 107 / 101 40% 1 07.09.2026 -
Vinnie Hayward Aston Villa Actif 76 / 92 40% 1 02.09.2026 -
Zach Marsh Crystal Palace Actif 87 / 76 40% 1 10.08.2026 -